Socorro, Texas
Current Conditions -  °F | °C
As of 10:41 AM on Sunday 25 Jan 2015 (Local Time) from MMCS Reporting Station
Broken Clouds Broken Clouds  
Wind Chill: 10°   Ceiling: 25000
Heat Index: 10°   Visibility: 10mi
Dew Point: -1°   Wind: 7mph
Humidity: 47%   Direction: 20°NNE
Pressure: 30.24"   Gusts: NA
Location:  31.66°N, 106.3°W
Report Text: MMCS 251741Z 02006KT 10SM BKN250 10/M01 A3024 RMK SLP227 52016 963 8/008
Loading
Personal Weather Stations






























Interactive Weather Map New forecast layout! Learn more

10-Day Weather Forecast

Advertisements
Track Severe Weather on mobile